Time;durP1;ratioP1;P1;durP2;ratioP2;P2;SDS_P1;SDS_P2;PMS_P1;PMS_P2;Temp;Humidity;BMP_temperature;BMP_pressure;BME280_temperature;BME280_humidity;BME280_pressure;Samples;Min_cycle;Max_cycle;Signal;HPM_P1;HPM_P2
2023/02/26 00:00:33;;;;;;;1.43;1.43;;;;;;;;;;6186739;28;20311;-80
2023/02/26 00:03:39;;;;;;;5.07;1.67;;;;;;;;;;6169256;28;20310;-82
2023/02/26 00:06:52;;;;;;;5.33;3.63;;;;;;;;;;6187089;28;20303;-81
2023/02/26 00:10:02;;;;;;;8.47;3.83;;;;;;;;;;6178981;28;20323;-81
2023/02/26 00:13:12;;;;;;;8.23;4.37;;;;;;;;;;6163927;28;20291;-81
2023/02/26 00:16:25;;;;;;;15.00;4.87;;;;;;;;;;6187617;28;20566;-81
2023/02/26 00:19:31;;;;;;;7.57;3.30;;;;;;;;;;6172373;28;20302;-81
2023/02/26 00:22:37;;;;;;;2.20;2.00;;;;;;;;;;6185955;28;20466;-80
2023/02/26 00:25:43;;;;;;;11.67;4.53;;;;;;;;;;6186784;28;20294;-81
2023/02/26 00:28:49;;;;;;;5.13;2.73;;;;;;;;;;6186361;28;20297;-81
2023/02/26 00:31:56;;;;;;;10.27;4.60;;;;;;;;;;6187112;28;20295;-81
2023/02/26 00:35:02;;;;;;;13.90;4.10;;;;;;;;;;6169810;28;20290;-81
2023/02/26 00:38:09;;;;;;;20.90;6.20;;;;;;;;;;6184001;28;20385;-81
2023/02/26 00:41:17;;;;;;;13.90;5.37;;;;;;;;;;6161308;28;20295;-81
2023/02/26 00:44:24;;;;;;;5.77;4.07;;;;;;;;;;6174840;28;20541;-81
2023/02/26 00:47:34;;;;;;;7.00;3.53;;;;;;;;;;6185947;28;20294;-81
2023/02/26 00:50:44;;;;;;;2.20;2.03;;;;;;;;;;6185010;28;20582;-80
2023/02/26 00:53:55;;;;;;;4.07;2.17;;;;;;;;;;6168472;28;20325;-81
2023/02/26 00:57:03;;;;;;;2.43;1.90;;;;;;;;;;6168597;28;20501;-81
2023/02/26 01:00:10;;;;;;;2.77;2.27;;;;;;;;;;6185571;28;20374;-81
2023/02/26 01:03:17;;;;;;;2.60;2.23;;;;;;;;;;6183348;28;20300;-81
2023/02/26 01:06:23;;;;;;;2.27;2.10;;;;;;;;;;6185501;28;20412;-81
2023/02/26 01:09:30;;;;;;;4.03;2.30;;;;;;;;;;6186736;28;20290;-81
2023/02/26 01:12:38;;;;;;;1.93;1.73;;;;;;;;;;6176602;28;20296;-81
2023/02/26 01:15:50;;;;;;;13.67;4.43;;;;;;;;;;6144435;29;20294;-81
2023/02/26 01:19:02;;;;;;;5.60;3.20;;;;;;;;;;6160686;28;20332;-81
2023/02/26 01:22:13;;;;;;;4.87;2.53;;;;;;;;;;6180658;28;20303;-82
2023/02/26 01:25:22;;;;;;;2.53;1.83;;;;;;;;;;6166012;28;20302;-82
2023/02/26 01:28:27;;;;;;;2.73;1.80;;;;;;;;;;6179401;28;20296;-80
2023/02/26 01:31:39;;;;;;;1.43;1.43;;;;;;;;;;6151249;28;20285;-79
2023/02/26 01:34:50;;;;;;;9.83;4.10;;;;;;;;;;6167142;28;20293;-81
2023/02/26 01:38:00;;;;;;;14.17;4.80;;;;;;;;;;6165816;28;20302;-80
2023/02/26 01:41:18;;;;;;;5.73;2.70;;;;;;;;;;6165358;28;20430;-81
2023/02/26 01:44:28;;;;;;;8.00;3.17;;;;;;;;;;6148802;29;20316;-81
2023/02/26 01:47:40;;;;;;;5.53;2.20;;;;;;;;;;6166596;28;20308;-81
2023/02/26 01:50:46;;;;;;;7.43;4.37;;;;;;;;;;6165335;28;20304;-81
2023/02/26 01:53:52;;;;;;;16.07;4.93;;;;;;;;;;6165544;28;20386;-81
2023/02/26 01:56:59;;;;;;;7.57;3.40;;;;;;;;;;6165232;28;20410;-81
2023/02/26 02:00:06;;;;;;;10.47;5.13;;;;;;;;;;6180652;28;20363;-81
2023/02/26 02:03:16;;;;;;;10.33;3.20;;;;;;;;;;6164804;28;20390;-81
2023/02/26 02:06:24;;;;;;;16.13;6.10;;;;;;;;;;6165913;28;20295;-81
2023/02/26 02:09:30;;;;;;;6.80;3.67;;;;;;;;;;6169754;28;20375;-82
2023/02/26 02:12:40;;;;;;;5.97;1.90;;;;;;;;;;6172351;28;20312;-81
2023/02/26 02:15:48;;;;;;;2.30;1.50;;;;;;;;;;6172427;28;20321;-81
2023/02/26 02:19:00;;;;;;;2.33;2.17;;;;;;;;;;6172235;28;20303;-81
2023/02/26 02:22:20;;;;;;;1.43;1.30;;;;;;;;;;6172577;28;20296;-81
2023/02/26 02:26:00;;;;;;;2.87;1.43;;;;;;;;;;6170850;28;20299;-81
2023/02/26 02:29:41;;;;;;;3.23;2.20;;;;;;;;;;6169979;28;20290;-81
2023/02/26 02:32:51;;;;;;;2.63;1.83;;;;;;;;;;6171551;28;20300;-80
2023/02/26 02:35:59;;;;;;;1.50;1.40;;;;;;;;;;6187397;28;20294;-83
2023/02/26 02:39:09;;;;;;;3.20;1.53;;;;;;;;;;6188229;28;20308;-82
2023/02/26 02:42:22;;;;;;;1.33;1.30;;;;;;;;;;6171685;28;20290;-81
2023/02/26 02:45:31;;;;;;;3.30;1.70;;;;;;;;;;6187290;28;20326;-80
2023/02/26 02:48:41;;;;;;;1.80;1.70;;;;;;;;;;6171108;28;20343;-81
2023/02/26 02:51:51;;;;;;;2.00;1.70;;;;;;;;;;6187601;28;20297;-81
2023/02/26 02:55:00;;;;;;;1.87;1.50;;;;;;;;;;6171019;28;20538;-81
2023/02/26 02:58:08;;;;;;;1.77;1.50;;;;;;;;;;6186291;28;20299;-81
2023/02/26 03:01:17;;;;;;;2.47;1.43;;;;;;;;;;6187689;28;20313;-81
2023/02/26 03:04:26;;;;;;;2.23;1.57;;;;;;;;;;6169791;28;20299;-81
2023/02/26 03:07:34;;;;;;;4.73;2.17;;;;;;;;;;6162902;29;20282;-81
2023/02/26 03:10:39;;;;;;;1.00;1.00;;;;;;;;;;6138992;29;20297;-81
2023/02/26 03:13:45;;;;;;;1.40;1.30;;;;;;;;;;6162155;28;20560;-80
2023/02/26 03:17:05;;;;;;;4.63;1.67;;;;;;;;;;6163084;28;20301;-81
2023/02/26 03:20:21;;;;;;;2.80;1.20;;;;;;;;;;6162657;28;20309;-81
2023/02/26 03:23:30;;;;;;;2.77;1.20;;;;;;;;;;6177902;28;20292;-81
2023/02/26 03:26:40;;;;;;;1.07;1.07;;;;;;;;;;6162834;28;20369;-81
2023/02/26 03:29:52;;;;;;;2.37;1.10;;;;;;;;;;6178246;28;20308;-81
2023/02/26 03:33:02;;;;;;;4.97;1.60;;;;;;;;;;6177721;28;20336;-82
2023/02/26 03:36:14;;;;;;;1.77;1.50;;;;;;;;;;6162309;28;20584;-82
2023/02/26 03:39:31;;;;;;;1.70;1.60;;;;;;;;;;6177664;28;20304;-82
2023/02/26 03:42:40;;;;;;;1.33;1.20;;;;;;;;;;6177901;28;20292;-83
2023/02/26 03:45:48;;;;;;;1.50;1.10;;;;;;;;;;6177399;28;20316;-80
2023/02/26 03:48:56;;;;;;;1.40;1.30;;;;;;;;;;6162898;28;20309;-81
2023/02/26 03:52:04;;;;;;;5.63;1.90;;;;;;;;;;6178147;28;20338;-82
2023/02/26 03:55:32;;;;;;;3.87;1.60;;;;;;;;;;6185572;28;20302;-81
2023/02/26 03:58:37;;;;;;;1.20;1.20;;;;;;;;;;6186236;28;20485;-82
2023/02/26 04:02:01;;;;;;;2.30;1.10;;;;;;;;;;6184768;28;20290;-81
2023/02/26 04:05:12;;;;;;;1.37;1.37;;;;;;;;;;6168471;28;20294;-81
2023/02/26 04:08:20;;;;;;;3.43;1.07;;;;;;;;;;6169168;28;20290;-81
2023/02/26 04:11:26;;;;;;;2.53;1.13;;;;;;;;;;6187441;28;20375;-82
2023/02/26 04:14:31;;;;;;;1.00;1.00;;;;;;;;;;6171365;28;20475;-81
2023/02/26 04:17:36;;;;;;;1.03;1.03;;;;;;;;;;6172674;28;20654;-81
2023/02/26 04:20:42;;;;;;;1.50;0.87;;;;;;;;;;6154798;29;20616;-81
2023/02/26 04:23:49;;;;;;;1.77;1.30;;;;;;;;;;6163264;28;20302;-82
2023/02/26 04:26:54;;;;;;;1.00;1.00;;;;;;;;;;6163132;28;20296;-81
2023/02/26 04:30:00;;;;;;;2.10;1.20;;;;;;;;;;6163979;28;20314;-82
2023/02/26 04:33:08;;;;;;;1.20;1.10;;;;;;;;;;6177415;28;20310;-82
2023/02/26 04:36:14;;;;;;;1.43;1.30;;;;;;;;;;6177711;28;20295;-81
2023/02/26 04:39:21;;;;;;;1.00;1.00;;;;;;;;;;6163183;28;20322;-82
2023/02/26 04:42:27;;;;;;;2.53;1.13;;;;;;;;;;6163745;28;20553;-82
2023/02/26 04:45:32;;;;;;;0.93;0.93;;;;;;;;;;6161618;29;20382;-81
2023/02/26 04:48:38;;;;;;;1.00;1.00;;;;;;;;;;6177319;28;20612;-82
2023/02/26 04:51:45;;;;;;;1.00;1.00;;;;;;;;;;6162316;29;20295;-82
2023/02/26 04:54:54;;;;;;;1.80;1.10;;;;;;;;;;6163434;28;20299;-82
2023/02/26 04:57:59;;;;;;;3.40;1.03;;;;;;;;;;6161087;28;20482;-81
2023/02/26 05:01:05;;;;;;;1.17;1.10;;;;;;;;;;6181773;28;20298;-82
2023/02/26 05:04:11;;;;;;;1.00;1.00;;;;;;;;;;6154985;29;20307;-81
2023/02/26 05:07:18;;;;;;;1.37;1.10;;;;;;;;;;6160820;29;20295;-81
2023/02/26 05:10:27;;;;;;;4.00;1.20;;;;;;;;;;6143893;29;20584;-81
2023/02/26 05:13:32;;;;;;;1.40;1.20;;;;;;;;;;6167816;28;20290;-81
2023/02/26 05:16:38;;;;;;;1.00;1.00;;;;;;;;;;6168885;28;20279;-81
2023/02/26 05:19:45;;;;;;;1.17;1.17;;;;;;;;;;6168547;28;20309;-81
2023/02/26 05:22:50;;;;;;;1.00;0.97;;;;;;;;;;6171207;28;20294;-80
2023/02/26 05:25:58;;;;;;;1.40;0.90;;;;;;;;;;6186078;28;20374;-81
2023/02/26 05:29:04;;;;;;;1.03;1.00;;;;;;;;;;6168045;28;20301;-83
2023/02/26 05:32:11;;;;;;;3.00;0.90;;;;;;;;;;6185174;28;20433;-80
2023/02/26 05:35:17;;;;;;;2.13;1.07;;;;;;;;;;6184674;28;20298;-81
2023/02/26 05:38:22;;;;;;;0.90;0.90;;;;;;;;;;6186235;28;20306;-81
2023/02/26 05:41:29;;;;;;;0.97;0.97;;;;;;;;;;6170346;28;20297;-80
2023/02/26 05:44:34;;;;;;;1.00;1.00;;;;;;;;;;6186849;28;20462;-80
2023/02/26 05:47:40;;;;;;;1.20;1.20;;;;;;;;;;6188799;28;20303;-80
2023/02/26 05:50:45;;;;;;;1.20;1.20;;;;;;;;;;6169595;28;20298;-81
2023/02/26 05:53:52;;;;;;;1.90;1.07;;;;;;;;;;6186575;28;20311;-81
2023/02/26 05:56:59;;;;;;;0.90;0.90;;;;;;;;;;6185011;28;20611;-81
2023/02/26 06:00:06;;;;;;;1.00;1.00;;;;;;;;;;6185864;28;20302;-81
2023/02/26 06:03:20;;;;;;;1.00;1.00;;;;;;;;;;6188364;28;20292;-81
2023/02/26 06:06:26;;;;;;;1.10;1.10;;;;;;;;;;6188668;28;20297;-81
2023/02/26 06:09:31;;;;;;;1.00;0.97;;;;;;;;;;6190715;28;20294;-82
2023/02/26 06:12:38;;;;;;;0.90;0.90;;;;;;;;;;6189165;28;20606;-79
2023/02/26 06:15:43;;;;;;;3.07;1.10;;;;;;;;;;6189569;28;20290;-81
2023/02/26 06:18:48;;;;;;;1.27;1.20;;;;;;;;;;6188833;28;20315;-80
2023/02/26 06:21:56;;;;;;;1.20;1.07;;;;;;;;;;6172361;28;20579;-82
2023/02/26 06:25:02;;;;;;;0.93;0.93;;;;;;;;;;6188382;28;20489;-81
2023/02/26 06:28:09;;;;;;;1.83;1.30;;;;;;;;;;6188994;28;20371;-80
2023/02/26 06:31:14;;;;;;;2.43;1.00;;;;;;;;;;6189194;28;20314;-81
2023/02/26 06:34:21;;;;;;;1.30;1.00;;;;;;;;;;6188892;28;20302;-80
2023/02/26 06:37:27;;;;;;;1.03;1.00;;;;;;;;;;6188838;28;20285;-79
2023/02/26 06:40:34;;;;;;;1.47;1.40;;;;;;;;;;6188704;28;20293;-80
2023/02/26 06:43:41;;;;;;;0.90;0.90;;;;;;;;;;6188547;28;20333;-82
2023/02/26 06:46:46;;;;;;;1.07;0.90;;;;;;;;;;6187728;28;20571;-81
2023/02/26 06:49:51;;;;;;;1.17;1.10;;;;;;;;;;6188110;28;20294;-81
2023/02/26 06:52:56;;;;;;;1.07;0.93;;;;;;;;;;6187579;28;20598;-82
2023/02/26 06:56:02;;;;;;;1.10;1.10;;;;;;;;;;6188383;28;20295;-82
2023/02/26 06:59:08;;;;;;;0.93;0.93;;;;;;;;;;6187841;28;20290;-81
2023/02/26 07:02:18;;;;;;;1.10;1.10;;;;;;;;;;6161726;28;20323;-81
2023/02/26 07:05:23;;;;;;;1.10;1.00;;;;;;;;;;6164232;28;20292;-81
2023/02/26 07:08:29;;;;;;;1.10;1.00;;;;;;;;;;6164268;28;20308;-82
2023/02/26 07:11:34;;;;;;;1.10;1.10;;;;;;;;;;6164423;28;20296;-82
2023/02/26 07:14:41;;;;;;;1.17;1.17;;;;;;;;;;6163444;28;20304;-81
2023/02/26 07:17:47;;;;;;;1.03;1.00;;;;;;;;;;6161954;28;20312;-82
2023/02/26 07:20:53;;;;;;;1.40;1.30;;;;;;;;;;6162015;28;20304;-81
2023/02/26 07:23:58;;;;;;;2.10;1.20;;;;;;;;;;6162810;29;20359;-81
2023/02/26 07:27:03;;;;;;;1.00;1.00;;;;;;;;;;6164762;28;20323;-81
2023/02/26 07:30:11;;;;;;;0.97;0.97;;;;;;;;;;6164201;28;20308;-82
2023/02/26 07:33:17;;;;;;;0.90;0.90;;;;;;;;;;6178349;28;20571;-82
2023/02/26 07:36:22;;;;;;;1.00;1.00;;;;;;;;;;6166370;28;20299;-82
2023/02/26 07:39:28;;;;;;;1.23;1.10;;;;;;;;;;6179638;28;20304;-81
2023/02/26 07:42:33;;;;;;;0.90;0.90;;;;;;;;;;6163423;28;20295;-82
2023/02/26 07:45:40;;;;;;;1.07;1.00;;;;;;;;;;6163701;28;20601;-82
2023/02/26 07:48:45;;;;;;;1.10;1.10;;;;;;;;;;6163410;28;20540;-81
2023/02/26 07:51:50;;;;;;;1.17;1.17;;;;;;;;;;6163853;28;20300;-81
2023/02/26 07:54:55;;;;;;;3.03;1.10;;;;;;;;;;6162841;28;20295;-81
2023/02/26 07:58:00;;;;;;;1.90;1.20;;;;;;;;;;6178222;28;20305;-80
2023/02/26 08:01:07;;;;;;;0.87;0.87;;;;;;;;;;6180796;28;20306;-81
2023/02/26 08:04:13;;;;;;;3.47;1.03;;;;;;;;;;6168996;28;20303;-79
2023/02/26 08:07:18;;;;;;;1.30;1.00;;;;;;;;;;6169962;28;20295;-81
2023/02/26 08:10:23;;;;;;;2.33;1.00;;;;;;;;;;6185902;28;20291;-80
2023/02/26 08:13:29;;;;;;;1.40;1.00;;;;;;;;;;6186701;28;20294;-81
2023/02/26 08:16:35;;;;;;;1.70;1.20;;;;;;;;;;6186772;28;20277;-82
2023/02/26 08:19:40;;;;;;;1.17;1.17;;;;;;;;;;6153737;28;20583;-83
2023/02/26 08:22:46;;;;;;;2.70;1.23;;;;;;;;;;6186924;28;20562;-82
2023/02/26 08:25:51;;;;;;;1.00;1.00;;;;;;;;;;6188799;28;20299;-82
2023/02/26 08:28:56;;;;;;;1.00;1.00;;;;;;;;;;6187885;28;20304;-82
2023/02/26 08:32:02;;;;;;;1.53;1.10;;;;;;;;;;6196519;28;20303;-81
2023/02/26 08:35:10;;;;;;;2.00;1.10;;;;;;;;;;6202283;28;20261;-79
2023/02/26 08:38:16;;;;;;;1.10;1.10;;;;;;;;;;6201284;28;20283;-81
2023/02/26 08:41:21;;;;;;;2.90;1.10;;;;;;;;;;6178583;28;20303;-81
2023/02/26 08:44:27;;;;;;;3.23;1.10;;;;;;;;;;6169708;28;20299;-86
2023/02/26 08:47:36;;;;;;;1.40;1.40;;;;;;;;;;6187221;28;20379;-84
2023/02/26 08:50:52;;;;;;;1.50;1.50;;;;;;;;;;6187119;28;20296;-82
2023/02/26 08:53:57;;;;;;;1.27;1.00;;;;;;;;;;6186158;28;20304;-81
2023/02/26 08:57:03;;;;;;;2.30;1.30;;;;;;;;;;6186326;28;20456;-80
2023/02/26 09:00:11;;;;;;;1.20;1.20;;;;;;;;;;6169560;28;20303;-81
2023/02/26 09:03:18;;;;;;;2.80;1.40;;;;;;;;;;6185361;28;20600;-81
2023/02/26 09:06:23;;;;;;;2.43;1.80;;;;;;;;;;6185267;28;20305;-81
2023/02/26 09:09:29;;;;;;;1.50;1.40;;;;;;;;;;6184253;28;20296;-81
2023/02/26 09:12:35;;;;;;;1.20;1.20;;;;;;;;;;6185908;28;20420;-82
2023/02/26 09:15:40;;;;;;;1.53;1.40;;;;;;;;;;6186457;28;20406;-81
2023/02/26 09:18:48;;;;;;;2.20;1.10;;;;;;;;;;6184661;28;20305;-80
2023/02/26 09:21:54;;;;;;;3.20;1.27;;;;;;;;;;6168462;28;20308;-82
2023/02/26 09:25:00;;;;;;;1.30;1.30;;;;;;;;;;6185526;28;20376;-80
2023/02/26 09:28:05;;;;;;;3.50;1.20;;;;;;;;;;6185773;28;20297;-81
2023/02/26 09:31:12;;;;;;;2.43;1.00;;;;;;;;;;6185823;28;20296;-80
2023/02/26 09:34:19;;;;;;;2.40;1.10;;;;;;;;;;6168313;28;20309;-80
2023/02/26 09:37:24;;;;;;;1.10;1.10;;;;;;;;;;6167868;28;20290;-81
2023/02/26 09:40:37;;;;;;;7.77;1.90;;;;;;;;;;6158005;28;20277;-77
2023/02/26 09:44:08;;;;;;;3.53;1.20;;;;;;;;;;6186519;28;20304;-77
2023/02/26 09:47:17;;;;;;;2.57;1.33;;;;;;;;;;6172675;28;20315;-77
2023/02/26 09:50:28;;;;;;;2.00;1.30;;;;;;;;;;6189302;28;20329;-78
2023/02/26 09:53:39;;;;;;;2.70;1.23;;;;;;;;;;6189100;28;20295;-79
2023/02/26 09:56:44;;;;;;;1.77;1.70;;;;;;;;;;6189703;28;20289;-79
2023/02/26 09:59:50;;;;;;;2.73;1.40;;;;;;;;;;6191149;28;20562;-79
2023/02/26 10:03:06;;;;;;;1.40;1.30;;;;;;;;;;6189079;28;20312;-80
2023/02/26 10:06:23;;;;;;;4.90;1.67;;;;;;;;;;6188366;28;20463;-80
2023/02/26 10:09:37;;;;;;;2.43;1.23;;;;;;;;;;6188757;28;20585;-80
2023/02/26 10:12:44;;;;;;;1.07;1.07;;;;;;;;;;6188870;28;20309;-80
2023/02/26 10:15:51;;;;;;;1.33;1.20;;;;;;;;;;6189403;28;20294;-78
2023/02/26 10:19:01;;;;;;;5.30;1.73;;;;;;;;;;6188927;28;20297;-79
2023/02/26 10:22:16;;;;;;;2.67;1.03;;;;;;;;;;6189606;28;20302;-80
2023/02/26 10:25:24;;;;;;;3.17;1.20;;;;;;;;;;6188030;28;20361;-81
2023/02/26 10:28:41;;;;;;;2.10;1.53;;;;;;;;;;6188911;28;20286;-79
2023/02/26 10:31:58;;;;;;;5.33;1.70;;;;;;;;;;6188654;28;20563;-79
2023/02/26 10:35:07;;;;;;;1.70;1.20;;;;;;;;;;6187391;28;20303;-80
2023/02/26 10:38:18;;;;;;;1.77;1.67;;;;;;;;;;6188513;28;20386;-80
2023/02/26 10:41:27;;;;;;;1.60;1.50;;;;;;;;;;6187619;28;20305;-79
2023/02/26 10:44:37;;;;;;;3.50;1.23;;;;;;;;;;6188823;28;20314;-80
2023/02/26 10:48:00;;;;;;;1.70;1.40;;;;;;;;;;6188245;28;20303;-80
2023/02/26 10:51:13;;;;;;;6.30;1.63;;;;;;;;;;6188895;28;20289;-80
2023/02/26 10:54:24;;;;;;;1.53;1.40;;;;;;;;;;6187064;28;20294;-80
2023/02/26 10:57:32;;;;;;;1.00;1.00;;;;;;;;;;6186454;28;20314;-78
2023/02/26 11:00:39;;;;;;;2.43;1.23;;;;;;;;;;6188106;28;20332;-80
2023/02/26 11:03:46;;;;;;;3.10;1.90;;;;;;;;;;6187055;28;20324;-80
2023/02/26 11:06:54;;;;;;;7.00;2.27;;;;;;;;;;6188510;28;20411;-78
2023/02/26 11:10:01;;;;;;;2.53;1.80;;;;;;;;;;6187557;28;20587;-80
2023/02/26 11:13:07;;;;;;;3.10;1.33;;;;;;;;;;6188096;28;20306;-80
2023/02/26 11:16:17;;;;;;;2.77;1.43;;;;;;;;;;6188556;28;20377;-79
2023/02/26 11:19:27;;;;;;;1.40;1.40;;;;;;;;;;6186403;28;20584;-79
2023/02/26 11:22:36;;;;;;;3.00;1.80;;;;;;;;;;6187648;28;20275;-78
2023/02/26 11:25:43;;;;;;;2.10;1.20;;;;;;;;;;6188056;28;20305;-79
2023/02/26 11:28:50;;;;;;;3.70;1.00;;;;;;;;;;6186809;28;20285;-81
2023/02/26 11:31:59;;;;;;;2.47;1.30;;;;;;;;;;6186275;28;20298;-79
2023/02/26 11:35:09;;;;;;;4.93;1.70;;;;;;;;;;6187391;28;20293;-80
2023/02/26 11:38:19;;;;;;;2.83;1.80;;;;;;;;;;6187555;28;20297;-80
2023/02/26 11:41:26;;;;;;;3.03;1.90;;;;;;;;;;6187973;28;20294;-80
2023/02/26 11:44:37;;;;;;;4.57;3.03;;;;;;;;;;6186870;28;20307;-81
2023/02/26 11:47:42;;;;;;;2.73;1.50;;;;;;;;;;6187437;28;20298;-79
2023/02/26 11:50:49;;;;;;;3.03;1.40;;;;;;;;;;6188728;28;20294;-81
2023/02/26 11:53:55;;;;;;;1.37;1.07;;;;;;;;;;6188993;28;20383;-80
2023/02/26 11:57:06;;;;;;;3.10;1.30;;;;;;;;;;6188361;28;20339;-79
2023/02/26 12:00:20;;;;;;;2.23;2.00;;;;;;;;;;6186864;28;20296;-80
2023/02/26 12:03:29;;;;;;;4.00;2.00;;;;;;;;;;6186305;28;20317;-79
2023/02/26 12:06:34;;;;;;;2.03;1.70;;;;;;;;;;6186761;28;20292;-80
2023/02/26 12:09:39;;;;;;;1.10;1.00;;;;;;;;;;6185932;28;20300;-80
2023/02/26 12:13:00;;;;;;;1.70;1.00;;;;;;;;;;6186490;28;20291;-79
2023/02/26 12:16:13;;;;;;;1.13;1.10;;;;;;;;;;6186835;28;20597;-79
2023/02/26 12:19:34;;;;;;;1.50;1.40;;;;;;;;;;6168952;28;20300;-80
2023/02/26 12:22:53;;;;;;;2.17;1.10;;;;;;;;;;6185706;28;20276;-78
2023/02/26 12:26:07;;;;;;;1.10;1.10;;;;;;;;;;6186674;28;20297;-80
2023/02/26 12:29:43;;;;;;;1.00;1.00;;;;;;;;;;6186056;28;20291;-79
2023/02/26 12:33:00;;;;;;;3.20;1.50;;;;;;;;;;6185957;28;20304;-80
2023/02/26 12:36:20;;;;;;;1.47;1.40;;;;;;;;;;6186037;28;20292;-79
2023/02/26 12:39:40;;;;;;;1.43;1.20;;;;;;;;;;6169242;28;20306;-79
2023/02/26 12:42:53;;;;;;;1.63;1.00;;;;;;;;;;6171000;28;20296;-80
2023/02/26 12:46:06;;;;;;;1.47;1.37;;;;;;;;;;6188365;28;20296;-80
2023/02/26 12:49:50;;;;;;;2.43;1.20;;;;;;;;;;6186258;28;20298;-80
2023/02/26 12:53:13;;;;;;;1.90;1.17;;;;;;;;;;6173567;28;20290;-79
2023/02/26 12:56:34;;;;;;;1.23;1.00;;;;;;;;;;6170623;28;20302;-79
2023/02/26 13:00:11;;;;;;;1.00;1.00;;;;;;;;;;6187009;28;20339;-80
2023/02/26 13:03:47;;;;;;;1.00;1.00;;;;;;;;;;6186831;28;20301;-80
2023/02/26 13:07:09;;;;;;;0.80;0.80;;;;;;;;;;6186284;28;20297;-79
2023/02/26 13:10:19;;;;;;;1.67;1.00;;;;;;;;;;6185274;28;20325;-79
2023/02/26 13:13:53;;;;;;;1.60;1.60;;;;;;;;;;6183389;28;20293;-79
2023/02/26 13:17:02;;;;;;;2.43;1.10;;;;;;;;;;6185057;28;20308;-78
2023/02/26 13:20:15;;;;;;;0.90;0.90;;;;;;;;;;6185233;28;20291;-79
2023/02/26 13:23:22;;;;;;;0.80;0.80;;;;;;;;;;6184509;28;20294;-79
2023/02/26 13:26:29;;;;;;;0.90;0.90;;;;;;;;;;6185225;28;20605;-79
2023/02/26 13:29:42;;;;;;;1.10;1.10;;;;;;;;;;6168255;28;20300;-80
2023/02/26 13:32:50;;;;;;;1.37;1.33;;;;;;;;;;6185348;28;20293;-79
2023/02/26 13:36:01;;;;;;;2.00;1.00;;;;;;;;;;6186009;28;20299;-79
2023/02/26 13:39:26;;;;;;;1.00;1.00;;;;;;;;;;6167402;28;20295;-79
2023/02/26 13:42:38;;;;;;;1.73;1.03;;;;;;;;;;6167948;28;20606;-79
2023/02/26 13:45:49;;;;;;;1.90;1.20;;;;;;;;;;6185340;28;20296;-80
2023/02/26 13:48:59;;;;;;;0.90;0.90;;;;;;;;;;6184532;28;20297;-80
2023/02/26 13:52:06;;;;;;;1.20;1.10;;;;;;;;;;6185534;28;20590;-79
2023/02/26 13:55:44;;;;;;;2.40;1.23;;;;;;;;;;6184500;28;20303;-79
2023/02/26 13:58:54;;;;;;;0.90;0.90;;;;;;;;;;6186897;28;20292;-80
2023/02/26 14:02:02;;;;;;;1.00;1.00;;;;;;;;;;6185192;28;20305;-79
2023/02/26 14:05:32;;;;;;;3.13;0.93;;;;;;;;;;6184829;28;20301;-79
2023/02/26 14:08:49;;;;;;;1.20;1.13;;;;;;;;;;6184657;28;20292;-79
2023/02/26 14:12:00;;;;;;;0.90;0.90;;;;;;;;;;6181450;28;20298;-80
2023/02/26 14:15:28;;;;;;;1.27;1.27;;;;;;;;;;6185564;28;20302;-81
2023/02/26 14:18:37;;;;;;;0.87;0.80;;;;;;;;;;6155470;28;20289;-80
2023/02/26 14:21:50;;;;;;;0.97;0.97;;;;;;;;;;6185509;28;20306;-79
2023/02/26 14:24:59;;;;;;;0.83;0.83;;;;;;;;;;6168876;28;20294;-80
2023/02/26 14:28:32;;;;;;;1.87;1.87;;;;;;;;;;6169058;28;20293;-80
2023/02/26 14:32:10;;;;;;;0.97;0.93;;;;;;;;;;6188659;28;20596;-80
2023/02/26 14:35:20;;;;;;;0.87;0.87;;;;;;;;;;6188912;28;20306;-79
2023/02/26 14:38:26;;;;;;;0.97;0.97;;;;;;;;;;6189183;28;20291;-79
2023/02/26 14:41:37;;;;;;;0.90;0.90;;;;;;;;;;6189115;28;20302;-79
2023/02/26 14:44:45;;;;;;;1.87;1.20;;;;;;;;;;6188212;28;20320;-79
2023/02/26 14:47:50;;;;;;;1.17;0.90;;;;;;;;;;6170981;28;20289;-80
2023/02/26 14:51:08;;;;;;;1.03;0.90;;;;;;;;;;6189076;28;20296;-80
2023/02/26 14:54:32;;;;;;;1.00;1.00;;;;;;;;;;6188113;28;20299;-80
2023/02/26 14:57:47;;;;;;;5.83;0.90;;;;;;;;;;6188263;28;20449;-80
2023/02/26 15:00:55;;;;;;;1.00;1.00;;;;;;;;;;6188305;28;20318;-80
2023/02/26 15:04:22;;;;;;;1.00;0.90;;;;;;;;;;6187900;28;20298;-79
2023/02/26 15:07:36;;;;;;;1.40;0.90;;;;;;;;;;6187422;28;20500;-79
2023/02/26 15:10:53;;;;;;;1.27;0.90;;;;;;;;;;6187077;28;20570;-80
2023/02/26 15:14:34;;;;;;;1.40;1.40;;;;;;;;;;6187791;28;20450;-79
2023/02/26 15:17:52;;;;;;;1.43;1.30;;;;;;;;;;6181716;28;20290;-80
2023/02/26 15:21:04;;;;;;;0.93;0.90;;;;;;;;;;6188189;28;20294;-80
2023/02/26 15:24:13;;;;;;;1.90;1.50;;;;;;;;;;6187422;28;20302;-79
2023/02/26 15:27:20;;;;;;;4.63;1.20;;;;;;;;;;6190352;28;20300;-80
2023/02/26 15:30:27;;;;;;;1.83;1.00;;;;;;;;;;6174586;28;20300;-81
2023/02/26 15:33:36;;;;;;;1.00;1.00;;;;;;;;;;6193703;28;20301;-80
2023/02/26 15:36:44;;;;;;;1.50;1.40;;;;;;;;;;6200666;28;20292;-80
2023/02/26 15:39:50;;;;;;;2.10;1.13;;;;;;;;;;6201798;28;20585;-79
2023/02/26 15:42:57;;;;;;;1.47;1.00;;;;;;;;;;6200286;28;20615;-80
2023/02/26 15:46:05;;;;;;;3.17;1.20;;;;;;;;;;6189776;28;20302;-79
2023/02/26 15:49:15;;;;;;;3.13;1.50;;;;;;;;;;6170961;28;20562;-79
2023/02/26 15:52:23;;;;;;;1.73;1.30;;;;;;;;;;6186894;28;20460;-79
2023/02/26 15:55:33;;;;;;;4.57;1.50;;;;;;;;;;6168531;28;20337;-81
2023/02/26 15:58:41;;;;;;;2.97;2.00;;;;;;;;;;6187169;28;20467;-79
2023/02/26 16:01:49;;;;;;;2.57;2.33;;;;;;;;;;6187437;28;20305;-79
2023/02/26 16:04:54;;;;;;;1.47;1.47;;;;;;;;;;6186928;28;20305;-79
2023/02/26 16:07:59;;;;;;;5.60;2.20;;;;;;;;;;6169430;28;20485;-79
2023/02/26 16:11:05;;;;;;;2.73;1.53;;;;;;;;;;6186166;28;20373;-80
2023/02/26 16:14:18;;;;;;;1.47;1.30;;;;;;;;;;6186744;28;20285;-79
2023/02/26 16:17:28;;;;;;;4.70;1.40;;;;;;;;;;6186795;28;20475;-79
2023/02/26 16:20:37;;;;;;;1.50;1.40;;;;;;;;;;6185908;28;20301;-79
2023/02/26 16:23:46;;;;;;;5.13;1.67;;;;;;;;;;6185527;28;20294;-80
2023/02/26 16:26:54;;;;;;;3.07;1.30;;;;;;;;;;6186453;28;20447;-80
2023/02/26 16:30:01;;;;;;;2.73;1.40;;;;;;;;;;6169143;28;20398;-79
2023/02/26 16:33:12;;;;;;;4.70;2.80;;;;;;;;;;6186180;28;20290;-79
2023/02/26 16:36:23;;;;;;;2.60;2.47;;;;;;;;;;6187727;28;20296;-80
2023/02/26 16:39:32;;;;;;;4.43;2.63;;;;;;;;;;6186306;28;20295;-79
2023/02/26 16:42:46;;;;;;;2.00;1.83;;;;;;;;;;6185613;28;20618;-79
2023/02/26 16:45:54;;;;;;;2.23;1.83;;;;;;;;;;6169376;28;20301;-78
2023/02/26 16:49:04;;;;;;;2.43;1.73;;;;;;;;;;6185870;28;20359;-79
2023/02/26 16:52:15;;;;;;;2.17;1.60;;;;;;;;;;6168869;28;20481;-79
2023/02/26 16:55:21;;;;;;;4.13;1.70;;;;;;;;;;6187396;28;20373;-80
2023/02/26 16:58:26;;;;;;;2.57;2.40;;;;;;;;;;6169149;28;20299;-79
2023/02/26 17:01:36;;;;;;;3.17;2.80;;;;;;;;;;6186794;28;20307;-79
2023/02/26 17:04:43;;;;;;;6.17;1.90;;;;;;;;;;6186497;28;20306;-80
2023/02/26 17:07:55;;;;;;;6.53;1.73;;;;;;;;;;6187603;28;20303;-80
2023/02/26 17:11:02;;;;;;;1.70;1.60;;;;;;;;;;6168671;28;20299;-81
2023/02/26 17:14:26;;;;;;;2.43;1.63;;;;;;;;;;6167853;28;20298;-79
2023/02/26 17:17:31;;;;;;;5.70;1.90;;;;;;;;;;6185197;28;20302;-79
2023/02/26 17:20:39;;;;;;;1.90;1.60;;;;;;;;;;6186108;28;20316;-80
2023/02/26 17:23:46;;;;;;;2.27;1.77;;;;;;;;;;6186009;28;20429;-80
2023/02/26 17:26:52;;;;;;;3.80;2.17;;;;;;;;;;6186102;28;20350;-80
2023/02/26 17:29:58;;;;;;;3.33;2.60;;;;;;;;;;6185075;28;20300;-80
2023/02/26 17:33:06;;;;;;;3.30;2.37;;;;;;;;;;6185151;28;20315;-80
2023/02/26 17:36:17;;;;;;;2.27;2.17;;;;;;;;;;6185891;28;20314;-78
2023/02/26 17:39:22;;;;;;;7.00;2.17;;;;;;;;;;6167901;28;20294;-80
2023/02/26 17:42:28;;;;;;;4.17;2.03;;;;;;;;;;6168748;28;20294;-79
2023/02/26 17:45:33;;;;;;;2.73;2.20;;;;;;;;;;6184291;28;20294;-80
2023/02/26 17:48:39;;;;;;;3.90;2.20;;;;;;;;;;6185275;28;20289;-80
2023/02/26 17:51:46;;;;;;;1.90;1.80;;;;;;;;;;6185239;28;20388;-79
2023/02/26 17:54:52;;;;;;;2.47;1.90;;;;;;;;;;6184749;28;20557;-80
2023/02/26 17:57:57;;;;;;;4.10;2.00;;;;;;;;;;6168157;28;20293;-80
2023/02/26 18:01:07;;;;;;;2.43;1.90;;;;;;;;;;6185074;28;20305;-81
2023/02/26 18:04:12;;;;;;;3.07;2.10;;;;;;;;;;6168871;28;20292;-79
2023/02/26 18:07:20;;;;;;;8.20;2.50;;;;;;;;;;6190331;28;20297;-80
2023/02/26 18:10:25;;;;;;;2.10;1.90;;;;;;;;;;6188347;28;20293;-78
2023/02/26 18:13:38;;;;;;;3.10;2.00;;;;;;;;;;6189114;28;20301;-80
2023/02/26 18:16:45;;;;;;;4.30;2.30;;;;;;;;;;6189878;28;20562;-79
2023/02/26 18:19:50;;;;;;;6.60;2.80;;;;;;;;;;6189581;28;20513;-80
2023/02/26 18:22:58;;;;;;;5.53;2.43;;;;;;;;;;6191395;28;20542;-80
2023/02/26 18:26:04;;;;;;;6.77;2.00;;;;;;;;;;6190291;28;20366;-80
2023/02/26 18:29:12;;;;;;;2.23;2.10;;;;;;;;;;6171884;28;20516;-80
2023/02/26 18:32:19;;;;;;;1.70;1.60;;;;;;;;;;6189680;28;20424;-81
2023/02/26 18:35:26;;;;;;;3.83;2.00;;;;;;;;;;6189377;28;20491;-80
2023/02/26 18:38:33;;;;;;;4.87;1.90;;;;;;;;;;6189066;28;20600;-80
2023/02/26 18:41:38;;;;;;;1.90;1.80;;;;;;;;;;6189250;28;20601;-79
2023/02/26 18:44:43;;;;;;;1.90;1.80;;;;;;;;;;6188672;28;20388;-81
2023/02/26 18:47:51;;;;;;;4.10;1.90;;;;;;;;;;6187801;28;20305;-81
2023/02/26 18:50:56;;;;;;;2.53;1.80;;;;;;;;;;6188941;28;20313;-80
2023/02/26 18:54:03;;;;;;;5.40;2.00;;;;;;;;;;6188445;28;20597;-79
2023/02/26 18:57:12;;;;;;;4.40;2.37;;;;;;;;;;6188163;28;20289;-81